createdAt,value
2019-04-23T00:00:26.463Z,77014.48
2019-04-23T00:02:58.808Z,77008.41
2019-04-23T00:05:41.833Z,77018.52
2019-04-23T00:08:09.706Z,76997.30
2019-04-23T00:10:38.854Z,77000.34
2019-04-23T00:13:05.672Z,77022.56
2019-04-23T00:16:08.504Z,77023.56
2019-04-23T00:21:13.745Z,77030.64
2019-04-23T00:23:44.635Z,77054.88
2019-04-23T00:26:16.262Z,77039.73
2019-04-23T00:28:50.758Z,77030.64
2019-04-23T00:31:18.362Z,77050.84
2019-04-23T00:33:44.818Z,77039.73
2019-04-23T00:36:23.045Z,77030.64
2019-04-23T00:38:59.255Z,77051.85
2019-04-23T00:41:16.430Z,77045.79
2019-04-23T00:43:54.549Z,77051.85
2019-04-23T00:46:26.383Z,77043.77
2019-04-23T00:48:57.758Z,77036.70
2019-04-23T00:51:23.880Z,77047.81
2019-04-23T00:53:56.828Z,77048.82
2019-04-23T00:59:02.733Z,77077.11
2019-04-23T01:04:23.108Z,77065.99
2019-04-23T01:06:44.617Z,77068.02
2019-04-23T01:09:10.459Z,77075.09
2019-04-23T01:11:46.589Z,77082.16
2019-04-23T01:14:13.414Z,77090.23
2019-04-23T01:17:06.109Z,77089.23
2019-04-23T01:21:47.521Z,77096.30
2019-04-23T01:24:41.903Z,77104.38
2019-04-23T01:32:42.490Z,77110.44
2019-04-23T01:35:17.202Z,77113.47
2019-04-23T01:37:58.194Z,77129.63
2019-04-23T01:40:19.196Z,77117.52
2019-04-23T01:47:54.839Z,77115.48
2019-04-23T01:50:32.711Z,77111.45
2019-04-23T01:53:03.957Z,77109.43
2019-04-23T02:00:47.706Z,77135.70
2019-04-23T02:05:42.889Z,77128.63
2019-04-23T02:08:08.362Z,77120.55
2019-04-23T02:13:16.356Z,77123.57
2019-04-23T02:15:45.945Z,77133.67
2019-04-23T02:18:17.964Z,77129.63
2019-04-23T02:20:55.931Z,77138.72
2019-04-23T02:26:04.789Z,77136.70
2019-04-23T02:31:40.377Z,77138.72
2019-04-23T02:33:53.522Z,77119.53
2019-04-23T02:41:34.646Z,77153.88
2019-04-23T02:43:59.551Z,77156.91
2019-04-23T02:46:33.001Z,77134.69
2019-04-23T02:48:59.858Z,77129.63
2019-04-23T02:51:27.234Z,77142.77
2019-04-23T02:54:04.012Z,77162.97
2019-04-23T02:56:45.322Z,77174.08
2019-04-23T03:06:38.470Z,77156.91
2019-04-23T03:10:15.401Z,77151.86
2019-04-23T03:11:41.829Z,77168.02
2019-04-23T03:14:18.588Z,77160.95
2019-04-23T03:34:21.025Z,77178.13
2019-04-23T03:35:09.773Z,77192.27
2019-04-23T03:37:39.662Z,77186.20
2019-04-23T03:40:07.922Z,77193.27
2019-04-23T03:45:29.878Z,77173.07
2019-04-23T03:47:52.517Z,77170.04
2019-04-23T03:50:35.383Z,77169.03
2019-04-23T03:52:50.634Z,77179.13
2019-04-23T03:57:52.741Z,77204.39
2019-04-23T04:00:35.235Z,77189.23
2019-04-23T04:03:50.235Z,77189.23
2019-04-23T04:08:13.342Z,77177.11
2019-04-23T04:10:36.039Z,77182.16
2019-04-23T04:13:08.718Z,77179.13
2019-04-23T04:15:53.408Z,77184.19
2019-04-23T04:18:28.653Z,77173.07
2019-04-23T04:20:53.861Z,77176.10
2019-04-23T04:23:22.510Z,77178.13
2019-04-23T04:25:53.510Z,77173.07
2019-04-23T04:28:19.521Z,77183.17
2019-04-23T04:36:13.126Z,77182.16
2019-04-23T04:38:36.690Z,77190.24
2019-04-23T04:41:04.266Z,77161.95
2019-04-23T04:43:32.119Z,77166.00
2019-04-23T04:48:33.303Z,77174.08
2019-04-23T04:51:11.421Z,77179.13
2019-04-23T04:56:20.955Z,77157.92
2019-04-23T04:59:09.344Z,77167.02
2019-04-23T05:03:29.706Z,77150.84
2019-04-23T05:08:48.183Z,77149.84
2019-04-23T05:11:21.504Z,77128.63
2019-04-23T05:13:56.770Z,77127.61
2019-04-23T05:16:16.117Z,77130.64
2019-04-23T05:18:55.239Z,77120.55
2019-04-23T05:21:33.153Z,77104.38
2019-04-23T05:24:51.075Z,77095.29
2019-04-23T05:26:27.198Z,77091.25
2019-04-23T05:31:29.635Z,77068.02
2019-04-23T05:34:05.952Z,77049.83
2019-04-23T05:39:19.219Z,77025.59
2019-04-23T05:41:41.701Z,77020.53
2019-04-23T05:44:15.695Z,77023.56
2019-04-23T05:46:59.915Z,77006.39
2019-04-23T05:56:53.499Z,76799.32
2019-04-23T05:59:24.699Z,76490.25
2019-04-23T06:01:58.699Z,76385.20
2019-04-23T06:04:32.462Z,76444.80
2019-04-23T06:07:15.116Z,76415.51
2019-04-23T06:09:31.293Z,76306.43
2019-04-23T06:14:40.549Z,76315.52
2019-04-23T06:19:42.490Z,76280.17
2019-04-23T06:24:57.921Z,76128.68
2019-04-23T06:27:24.364Z,75982.25
2019-04-23T06:29:43.227Z,76050.92
2019-04-23T06:32:22.744Z,76206.45
2019-04-23T06:34:47.976Z,76054.95
2019-04-23T06:37:28.391Z,76219.58
2019-04-23T06:39:48.366Z,76142.82
2019-04-23T06:42:23.110Z,76207.45
2019-04-23T06:47:24.858Z,76578.12
2019-04-23T06:49:55.343Z,76729.63
2019-04-23T06:52:30.109Z,76762.95
2019-04-23T06:57:26.952Z,76751.84
2019-04-23T07:00:06.577Z,76739.73
2019-04-23T07:02:42.133Z,76722.55
2019-04-23T07:05:14.592Z,76716.50
2019-04-23T07:10:14.758Z,76686.20
2019-04-23T07:12:41.462Z,76684.17
2019-04-23T07:17:39.497Z,76668.02
2019-04-23T07:22:50.611Z,76626.60
2019-04-23T07:25:17.785Z,76623.57
2019-04-23T07:27:49.360Z,76609.43
2019-04-23T07:30:31.534Z,76587.21
2019-04-23T07:35:38.263Z,76561.96
2019-04-23T07:38:01.798Z,76558.92
2019-04-23T07:40:31.248Z,76542.77
2019-04-23T07:43:08.351Z,76532.67
2019-04-23T07:46:12.301Z,76508.42
2019-04-23T07:48:37.024Z,76498.33
2019-04-23T07:51:31.549Z,76486.20
2019-04-23T07:53:48.336Z,76501.36
2019-04-23T07:56:13.135Z,76490.25
2019-04-23T07:58:39.288Z,76466.01
2019-04-23T08:01:14.215Z,76454.90
2019-04-23T08:03:48.377Z,76468.03
2019-04-23T08:06:16.535Z,76455.91
2019-04-23T08:08:50.563Z,76440.76
2019-04-23T08:13:58.706Z,76439.75
2019-04-23T08:24:43.414Z,76371.06
2019-04-23T08:29:50.878Z,76371.06
2019-04-23T08:32:18.653Z,76362.98
2019-04-23T08:34:56.420Z,76346.83
2019-04-23T08:37:26.921Z,76337.73
2019-04-23T08:42:46.887Z,76310.47
2019-04-23T08:45:28.675Z,76312.48
2019-04-23T08:48:01.221Z,76302.39
2019-04-23T08:50:27.449Z,76290.27
2019-04-23T08:53:15.003Z,76294.31
2019-04-23T08:55:34.885Z,76271.08
2019-04-23T08:58:02.224Z,76264.02
2019-04-23T09:00:33.838Z,76253.91
2019-04-23T09:03:06.234Z,76254.92
2019-04-23T09:08:15.110Z,76240.78
2019-04-23T09:10:40.961Z,76212.50
2019-04-23T09:13:33.354Z,76185.23
2019-04-23T09:15:45.040Z,76163.02
2019-04-23T09:18:16.431Z,76169.08
2019-04-23T09:20:35.885Z,76163.02
2019-04-23T09:23:23.802Z,76164.03
2019-04-23T09:30:57.820Z,76117.57
2019-04-23T09:33:46.829Z,76119.59
2019-04-23T09:36:51.562Z,76084.25
2019-04-23T09:42:31.888Z,76095.35
2019-04-23T09:45:23.318Z,76095.35
2019-04-23T09:48:01.541Z,76088.28
2019-04-23T09:50:46.836Z,76046.88
2019-04-23T09:55:38.826Z,76019.61
2019-04-23T10:00:59.092Z,76021.63
2019-04-23T10:03:04.863Z,76004.47
2019-04-23T10:05:33.549Z,76006.48
2019-04-23T10:08:03.086Z,75973.16
2019-04-23T10:10:28.149Z,75963.06
2019-04-23T10:12:58.111Z,75974.17
2019-04-23T10:15:36.220Z,75943.88
2019-04-23T10:18:02.492Z,75928.72
2019-04-23T10:20:31.837Z,75905.50
2019-04-23T10:23:02.247Z,75932.77
2019-04-23T10:25:31.996Z,75919.63
2019-04-23T10:28:06.714Z,75938.82
2019-04-23T10:30:36.473Z,75926.70
2019-04-23T10:33:07.520Z,75885.30
2019-04-23T10:35:46.105Z,75881.27
2019-04-23T10:38:14.442Z,75906.51
2019-04-23T10:40:45.901Z,75897.42
2019-04-23T10:43:12.993Z,75875.20
2019-04-23T10:46:13.635Z,75885.30
2019-04-23T10:49:31.712Z,75872.17
2019-04-23T10:52:04.908Z,75862.07
2019-04-23T10:54:34.280Z,75852.98
2019-04-23T10:56:59.056Z,75856.02
2019-04-23T10:59:40.396Z,75819.66
2019-04-23T11:02:29.295Z,75819.66
2019-04-23T11:10:03.669Z,75772.20
2019-04-23T11:20:31.426Z,75782.30
2019-04-23T11:22:58.985Z,75746.95
2019-04-23T11:25:32.991Z,75766.14
2019-04-23T11:28:03.065Z,75773.20
2019-04-23T11:30:41.172Z,75748.97
2019-04-23T11:33:09.112Z,75753.01
2019-04-23T11:38:35.496Z,75712.62
2019-04-23T11:41:11.749Z,75710.59
2019-04-23T11:45:51.210Z,75701.51
2019-04-23T11:48:33.296Z,75672.22
2019-04-23T11:53:23.634Z,75705.55
2019-04-23T11:56:02.641Z,75682.33
2019-04-23T12:03:58.710Z,75637.89
2019-04-23T12:06:36.657Z,75644.96
2019-04-23T12:09:25.628Z,75628.80
2019-04-23T12:12:04.183Z,75663.14
2019-04-23T12:17:13.006Z,75629.81
2019-04-23T12:24:56.882Z,75638.91
2019-04-23T12:27:06.145Z,75617.70
2019-04-23T12:40:15.686Z,75615.67
2019-04-23T12:55:26.046Z,75593.46
2019-04-23T13:00:25.693Z,75580.34
2019-04-23T13:02:58.889Z,75587.41
2019-04-23T13:08:00.535Z,75550.04
2019-04-23T13:10:35.497Z,75550.04
2019-04-23T13:13:11.286Z,75552.06
2019-04-23T13:15:37.364Z,75566.20
2019-04-23T13:18:03.023Z,75541.97
2019-04-23T13:20:33.874Z,75542.97
2019-04-23T13:23:11.812Z,75538.94
2019-04-23T13:28:21.102Z,75560.14
2019-04-23T13:33:35.127Z,75539.94
2019-04-23T13:36:18.879Z,75528.84
2019-04-23T13:43:43.734Z,75540.95
2019-04-23T13:48:31.492Z,75529.84
2019-04-23T13:51:19.493Z,75537.92
2019-04-23T13:56:11.265Z,75510.66
2019-04-23T13:58:44.889Z,75519.75
2019-04-23T14:01:26.293Z,75526.81
2019-04-23T14:03:50.487Z,75490.47
2019-04-23T14:06:27.604Z,75495.52
2019-04-23T14:08:55.410Z,75496.52
2019-04-23T14:11:23.207Z,75499.55
2019-04-23T14:14:08.544Z,75487.44
2019-04-23T14:16:28.657Z,75478.34
2019-04-23T14:18:58.438Z,75473.30
2019-04-23T14:21:24.812Z,75493.50
2019-04-23T14:26:29.645Z,75455.13
2019-04-23T14:28:51.149Z,75442.00
2019-04-23T14:31:42.920Z,75451.09
2019-04-23T14:34:20.878Z,75450.08
2019-04-23T14:41:42.514Z,75464.21
2019-04-23T14:44:19.848Z,75450.08
2019-04-23T14:49:25.561Z,75420.80
2019-04-23T14:51:58.941Z,75401.61
2019-04-23T14:57:09.842Z,75410.70
2019-04-23T14:59:30.719Z,75406.66
2019-04-23T15:02:05.489Z,75410.70
2019-04-23T15:04:41.179Z,75412.72
2019-04-23T15:07:15.646Z,75427.86
2019-04-23T15:09:53.459Z,75397.57
2019-04-23T15:12:25.958Z,75411.70
2019-04-23T15:14:51.179Z,75405.64
2019-04-23T15:17:23.365Z,75406.66
2019-04-23T15:20:03.027Z,75424.83
2019-04-23T15:25:21.398Z,75416.75
2019-04-23T15:28:05.873Z,75399.59
2019-04-23T15:29:58.186Z,75403.63
2019-04-23T15:32:53.589Z,75394.54
2019-04-23T15:35:31.613Z,75398.58
2019-04-23T15:38:00.511Z,75379.39
2019-04-23T15:40:16.488Z,75390.50
2019-04-23T15:42:51.574Z,75417.77
2019-04-23T15:45:19.307Z,75390.50
2019-04-23T15:47:48.518Z,75371.31
2019-04-23T15:50:23.572Z,75368.28
2019-04-23T15:55:22.559Z,75355.16
2019-04-23T16:00:24.822Z,75354.15
2019-04-23T16:02:29.136Z,75377.38
2019-04-23T16:05:00.044Z,75402.62
2019-04-23T16:07:50.924Z,75375.36
2019-04-23T16:10:49.147Z,75382.42
2019-04-23T16:13:05.825Z,75368.28
2019-04-23T16:15:29.086Z,75388.48
2019-04-23T16:18:23.691Z,75390.50
2019-04-23T16:23:21.544Z,75416.75
2019-04-23T16:25:49.819Z,75415.74
2019-04-23T16:28:28.957Z,75423.82
2019-04-23T16:31:09.443Z,75421.80
2019-04-23T16:33:20.649Z,75429.88
2019-04-23T16:36:16.710Z,75442.00
2019-04-23T16:38:38.335Z,75445.03
2019-04-23T16:41:09.936Z,75429.88
2019-04-23T16:43:35.486Z,75440.98
2019-04-23T16:48:55.313Z,75438.97
2019-04-23T16:53:38.321Z,75437.95
2019-04-23T16:56:18.493Z,75440.98
2019-04-23T16:58:54.630Z,75446.03
2019-04-23T17:01:24.895Z,75435.94
2019-04-23T17:04:01.045Z,75434.93
2019-04-23T17:06:27.126Z,75442.00
2019-04-23T17:08:57.732Z,75466.23
2019-04-23T17:11:25.267Z,75468.25
2019-04-23T17:14:02.759Z,75471.28
2019-04-23T17:19:01.995Z,75466.23
2019-04-23T17:21:29.856Z,75472.29
2019-04-23T17:24:15.371Z,75490.47
2019-04-23T17:26:37.377Z,75489.45
2019-04-23T17:34:24.430Z,75497.53
2019-04-23T17:37:01.084Z,75494.50
2019-04-23T17:40:00.927Z,75481.38
2019-04-23T17:48:12.901Z,75538.94
2019-04-23T17:53:25.312Z,75547.02
2019-04-23T17:56:18.486Z,75547.02
2019-04-23T17:58:31.792Z,75568.22
2019-04-23T18:01:17.643Z,75573.27
2019-04-23T18:03:50.209Z,75574.27
2019-04-23T18:06:21.341Z,75589.42
2019-04-23T18:13:54.943Z,75623.75
2019-04-23T18:16:30.765Z,75619.72
2019-04-23T18:21:46.172Z,75624.77
2019-04-23T18:27:18.051Z,75639.91
2019-04-23T18:37:49.131Z,75703.53
2019-04-23T18:40:21.365Z,75715.65
2019-04-23T18:42:53.503Z,75725.75
2019-04-23T18:45:35.565Z,75731.80
2019-04-23T18:48:27.419Z,75718.67
2019-04-23T18:53:33.768Z,75766.14
2019-04-23T18:56:03.594Z,75758.06
2019-04-23T18:58:22.429Z,75765.13
2019-04-23T19:04:19.663Z,75785.33
2019-04-23T19:06:38.312Z,75780.27
2019-04-23T19:10:02.173Z,75781.28
2019-04-23T19:12:25.148Z,75792.39
2019-04-23T19:17:42.933Z,75799.46
2019-04-23T19:20:16.290Z,75806.53
2019-04-23T19:22:28.144Z,75812.59
2019-04-23T19:24:53.394Z,75808.55
2019-04-23T19:27:37.172Z,75835.81
2019-04-23T19:38:17.899Z,75835.81
2019-04-23T19:43:26.392Z,75840.86
2019-04-23T19:46:09.376Z,75847.94
2019-04-23T19:48:25.315Z,75862.07
2019-04-23T19:51:09.535Z,75878.23
2019-04-23T19:53:43.104Z,75868.13
2019-04-23T19:56:08.803Z,75858.03
2019-04-23T19:58:46.158Z,75871.16
2019-04-23T20:11:08.065Z,75891.36
2019-04-23T20:21:14.978Z,75902.47
2019-04-23T20:24:04.104Z,75922.66
2019-04-23T20:34:31.209Z,75927.71
2019-04-23T20:36:49.112Z,75923.67
2019-04-23T20:39:32.729Z,75932.77
2019-04-23T20:42:08.997Z,75954.98
2019-04-23T20:44:44.960Z,75951.95
2019-04-23T20:49:40.782Z,75961.04
2019-04-23T20:52:04.689Z,75944.88
2019-04-23T20:54:50.871Z,75953.97
2019-04-23T20:57:43.914Z,75952.95
2019-04-23T21:05:19.601Z,75981.23
2019-04-23T21:07:57.530Z,75969.12
2019-04-23T21:10:32.623Z,75993.36
2019-04-23T21:13:06.771Z,75989.31
2019-04-23T21:31:00.901Z,76012.55
2019-04-23T21:33:28.491Z,76007.49
2019-04-23T21:36:18.404Z,76009.52
2019-04-23T21:39:03.525Z,76004.47
2019-04-23T21:49:20.937Z,76019.61
2019-04-23T21:51:45.517Z,76015.58
2019-04-23T21:53:58.498Z,76023.65
2019-04-23T21:56:37.206Z,76023.65
2019-04-23T21:59:06.842Z,76027.69
2019-04-23T22:01:44.288Z,76048.90
2019-04-23T22:04:17.364Z,76037.79
2019-04-23T22:06:59.094Z,76047.89
2019-04-23T22:09:21.222Z,76051.93
2019-04-23T22:11:57.002Z,76042.84
2019-04-23T22:14:20.245Z,76048.90
2019-04-23T22:24:21.587Z,76060.01
2019-04-23T22:26:53.313Z,76055.97
2019-04-23T22:29:33.460Z,76053.95
2019-04-23T22:32:02.849Z,76049.91
2019-04-23T22:34:42.115Z,76056.98
2019-04-23T22:37:12.207Z,76075.16
2019-04-23T22:39:41.895Z,76076.17
2019-04-23T22:47:07.254Z,76071.12
2019-04-23T22:50:02.612Z,76070.11
2019-04-23T22:55:02.271Z,76087.28
2019-04-23T22:57:45.195Z,76087.28
2019-04-23T23:00:13.030Z,76090.30
2019-04-23T23:02:54.083Z,76087.28
2019-04-23T23:05:14.171Z,76094.34
2019-04-23T23:07:55.747Z,76096.36
2019-04-23T23:10:12.921Z,76097.38
2019-04-23T23:12:51.283Z,76101.41
2019-04-23T23:15:19.392Z,76102.42
2019-04-23T23:18:03.135Z,76120.60
2019-04-23T23:20:21.089Z,76108.48
2019-04-23T23:23:05.670Z,76110.50
2019-04-23T23:27:57.691Z,76114.55
2019-04-23T23:30:26.671Z,76118.58
2019-04-23T23:32:55.622Z,76126.66
2019-04-23T23:38:01.736Z,76145.84
2019-04-23T23:40:30.295Z,76142.82
2019-04-23T23:45:35.415Z,76139.79
2019-04-23T23:50:50.153Z,76126.66
2019-04-23T23:55:38.751Z,76128.68
2019-04-23T23:58:20.422Z,76129.69
